Time;durP1;ratioP1;P1;durP2;ratioP2;P2;SDS_P1;SDS_P2;PMS_P1;PMS_P2;Temp;Humidity;BMP_temperature;BMP_pressure;BME280_temperature;BME280_humidity;BME280_pressure;Samples;Min_cycle;Max_cycle;Signal;HPM_P1;HPM_P2
2024/04/20 00:01:25;;;;;;;15.00;2.75;;;;;;;11.12;62.02;101886.94;5525229;25;20009;-44
2024/04/20 00:03:50;;;;;;;16.45;2.70;;;;;;;10.88;62.05;101882.81;5527283;25;20017;-46
2024/04/20 00:06:16;;;;;;;9.57;2.05;;;;;;;10.91;61.82;101887.25;5532638;25;19997;-42
2024/04/20 00:08:43;;;;;;;12.35;1.90;;;;;;;10.61;61.66;101873.34;5533341;25;19993;-44
2024/04/20 00:11:11;;;;;;;15.10;2.00;;;;;;;10.41;62.91;101891.88;5533322;25;20462;-43
2024/04/20 00:13:40;;;;;;;12.88;2.35;;;;;;;10.61;63.07;101888.97;5528815;25;19993;-41
2024/04/20 00:16:06;;;;;;;14.30;2.17;;;;;;;10.30;65.20;101895.00;5526675;25;20002;-41
2024/04/20 00:18:32;;;;;;;17.38;2.45;;;;;;;10.40;64.29;101887.50;5524122;25;19993;-45
2024/04/20 00:20:57;;;;;;;13.55;2.25;;;;;;;10.54;65.36;101887.91;5524514;25;20347;-42
2024/04/20 00:23:22;;;;;;;22.88;2.58;;;;;;;10.42;64.86;101895.38;5524923;25;20458;-44
2024/04/20 00:25:48;;;;;;;16.95;2.63;;;;;;;10.26;64.50;101895.72;5523557;25;20077;-41
2024/04/20 00:28:13;;;;;;;20.45;2.97;;;;;;;10.72;62.89;101891.06;5524661;25;19993;-40
2024/04/20 00:30:38;;;;;;;22.17;2.38;;;;;;;10.77;61.79;101892.06;5521662;25;20001;-45
2024/04/20 00:33:04;;;;;;;18.25;2.30;;;;;;;10.71;61.58;101891.00;5525244;25;20001;-43
2024/04/20 00:35:35;;;;;;;15.75;2.42;;;;;;;10.58;61.00;101889.75;5524160;25;20448;-41
2024/04/20 00:38:00;;;;;;;18.33;3.03;;;;;;;10.69;60.00;101892.69;5524158;25;20038;-42
2024/04/20 00:40:25;;;;;;;21.85;3.10;;;;;;;10.95;59.47;101884.75;5521812;25;20001;-42
2024/04/20 00:42:51;;;;;;;17.70;2.22;;;;;;;11.47;58.09;101887.88;5524112;25;19997;-45
2024/04/20 00:45:16;;;;;;;17.38;2.80;;;;;;;11.25;58.18;101895.16;5524381;25;19998;-42
2024/04/20 00:47:42;;;;;;;17.80;2.20;;;;;;;11.47;57.56;101885.25;5523572;25;20008;-40
2024/04/20 00:50:07;;;;;;;15.65;2.30;;;;;;;11.31;58.07;101884.88;5523980;25;20001;-43
2024/04/20 00:52:33;;;;;;;15.75;2.70;;;;;;;11.34;57.93;101892.75;5523697;25;20332;-41
2024/04/20 00:54:59;;;;;;;20.40;2.67;;;;;;;11.21;57.61;101890.69;5523520;25;20017;-45
2024/04/20 00:57:26;;;;;;;13.65;2.22;;;;;;;11.10;58.68;101888.66;5523837;25;19997;-43
2024/04/20 00:59:52;;;;;;;15.68;2.20;;;;;;;10.72;59.69;101896.28;5553564;25;20061;-43
2024/04/20 01:02:19;;;;;;;19.95;2.67;;;;;;;10.97;61.02;101905.69;5524162;25;20005;-44
2024/04/20 01:04:44;;;;;;;18.13;2.50;;;;;;;10.88;60.78;101906.28;5523406;25;20005;-41
2024/04/20 01:07:09;;;;;;;17.15;2.38;;;;;;;11.08;59.94;101903.38;5523893;25;20065;-41
2024/04/20 01:09:35;;;;;;;22.17;2.08;;;;;;;10.61;59.82;101915.94;5522739;25;20066;-41
2024/04/20 01:12:00;;;;;;;13.75;2.60;;;;;;;10.87;57.12;101908.84;5524127;25;20016;-41
2024/04/20 01:14:25;;;;;;;14.00;2.03;;;;;;;10.81;55.91;101906.06;5523374;25;20012;-41
2024/04/20 01:16:51;;;;;;;10.07;1.98;;;;;;;10.73;56.34;101912.81;5521706;26;20016;-41
2024/04/20 01:19:22;;;;;;;12.68;1.75;;;;;;;11.00;55.67;101910.97;5523641;25;20448;-48
2024/04/20 01:21:48;;;;;;;12.55;1.77;;;;;;;11.05;54.61;101911.97;5523148;25;20001;-41
2024/04/20 01:24:16;;;;;;;8.35;1.95;;;;;;;10.94;53.80;101918.63;5523867;25;20076;-45
2024/04/20 01:26:41;;;;;;;10.88;1.70;;;;;;;11.48;53.06;101915.75;5523239;25;20444;-43
2024/04/20 01:29:08;;;;;;;11.98;1.70;;;;;;;11.71;51.85;101917.25;5523521;25;20062;-45
2024/04/20 01:31:33;;;;;;;12.57;1.98;;;;;;;11.59;52.24;101919.53;5523418;25;20006;-41
2024/04/20 01:33:58;;;;;;;14.43;1.77;;;;;;;11.28;53.61;101929.16;5523867;25;20008;-41
2024/04/20 01:36:24;;;;;;;11.23;2.00;;;;;;;11.33;54.11;101926.69;5522647;25;20009;-40
2024/04/20 01:38:53;;;;;;;9.13;1.77;;;;;;;11.51;53.81;101928.91;5522861;25;20021;-43
2024/04/20 01:41:18;;;;;;;11.40;1.65;;;;;;;10.82;54.46;101913.94;5523246;25;20374;-41
2024/04/20 01:43:43;;;;;;;13.82;1.65;;;;;;;11.14;53.31;101930.53;5523079;25;20005;-41
2024/04/20 01:46:09;;;;;;;15.77;2.17;;;;;;;11.21;52.86;101934.19;5523027;25;20375;-41
2024/04/20 01:48:34;;;;;;;10.20;1.73;;;;;;;11.45;53.42;101932.25;5522745;25;20021;-41
2024/04/20 01:50:59;;;;;;;13.20;1.90;;;;;;;10.77;56.85;101936.41;5523709;25;20008;-46
2024/04/20 01:53:25;;;;;;;14.55;2.10;;;;;;;10.63;60.25;101937.72;5523053;25;19993;-41
2024/04/20 01:55:50;;;;;;;15.00;2.13;;;;;;;10.51;60.67;101942.56;5522473;25;20037;-41
2024/04/20 01:58:15;;;;;;;15.30;2.33;;;;;;;11.11;59.25;101939.97;5522930;25;20524;-41
2024/04/20 02:00:41;;;;;;;11.90;2.17;;;;;;;10.77;60.83;101939.03;5522558;25;20000;-42
2024/04/20 02:03:11;;;;;;;12.45;2.15;;;;;;;10.97;60.00;101952.66;5522972;25;20077;-41
2024/04/20 02:05:36;;;;;;;17.75;2.00;;;;;;;11.06;59.43;101949.41;5521965;25;19997;-41
2024/04/20 02:08:02;;;;;;;12.48;1.80;;;;;;;11.07;59.68;101956.41;5522922;25;20013;-41
2024/04/20 02:10:27;;;;;;;13.95;2.00;;;;;;;11.09;60.01;101959.94;5522002;25;19997;-41
2024/04/20 02:12:52;;;;;;;12.23;2.08;;;;;;;11.20;59.05;101972.44;5522905;25;20001;-43
2024/04/20 02:15:17;;;;;;;14.88;1.92;;;;;;;11.39;58.86;101974.75;5523036;25;20601;-43
2024/04/20 02:17:43;;;;;;;13.48;1.75;;;;;;;11.13;59.09;101977.44;5522117;25;19997;-43
2024/04/20 02:20:08;;;;;;;16.52;2.20;;;;;;;10.87;59.79;101979.28;5524390;25;20008;-41
2024/04/20 02:22:34;;;;;;;14.85;1.75;;;;;;;10.79;59.28;101975.59;5524425;25;20081;-41
2024/04/20 02:24:59;;;;;;;9.88;1.77;;;;;;;10.88;59.01;101971.53;5525078;25;20009;-43
2024/04/20 02:27:24;;;;;;;9.75;1.70;;;;;;;11.01;58.06;101964.94;5524198;25;20012;-41
2024/04/20 02:29:49;;;;;;;13.82;1.67;;;;;;;11.18;57.91;101975.84;5524475;25;20002;-41
2024/04/20 02:32:15;;;;;;;12.13;1.85;;;;;;;10.87;57.48;101974.97;5524707;25;20012;-41
2024/04/20 02:34:40;;;;;;;12.63;1.65;;;;;;;11.10;57.59;101969.56;5523941;25;20012;-41
2024/04/20 02:37:09;;;;;;;9.80;1.70;;;;;;;11.02;56.04;101965.81;5523876;25;19997;-42
2024/04/20 02:39:34;;;;;;;12.55;2.00;;;;;;;11.16;56.06;101973.19;5523827;25;20452;-41
2024/04/20 02:41:59;;;;;;;10.25;1.73;;;;;;;11.25;56.17;101972.56;5528242;25;20039;-41
2024/04/20 02:44:25;;;;;;;7.47;1.65;;;;;;;11.48;55.59;101974.09;5528565;25;20001;-44
2024/04/20 02:46:50;;;;;;;12.60;2.17;;;;;;;11.21;56.78;101975.94;5526884;25;19998;-44
2024/04/20 02:49:15;;;;;;;9.88;1.90;;;;;;;11.13;57.18;101961.78;5522755;25;20468;-41
2024/04/20 02:51:40;;;;;;;15.10;1.83;;;;;;;11.17;57.14;101976.69;5521720;25;20005;-42
2024/04/20 02:54:06;;;;;;;16.23;2.00;;;;;;;11.19;56.63;101968.06;5522753;25;20265;-41
2024/04/20 02:56:31;;;;;;;15.98;2.53;;;;;;;11.06;57.66;101978.09;5521466;25;20002;-42
2024/04/20 02:58:57;;;;;;;16.38;2.15;;;;;;;11.23;57.50;101987.28;5522538;25;20002;-42
2024/04/20 03:01:23;;;;;;;13.38;1.92;;;;;;;10.68;59.46;101987.41;5521970;25;19997;-41
2024/04/20 03:03:48;;;;;;;19.08;2.72;;;;;;;11.01;59.12;101992.75;5519665;25;20074;-41
2024/04/20 03:06:15;;;;;;;12.48;2.22;;;;;;;10.99;60.34;101993.59;5522473;25;20742;-41
2024/04/20 03:08:40;;;;;;;18.65;2.42;;;;;;;11.42;59.63;101997.41;5521644;25;20008;-43
2024/04/20 03:11:06;;;;;;;20.65;2.60;;;;;;;11.32;60.36;101996.28;5520789;25;19994;-41
2024/04/20 03:13:31;;;;;;;14.98;2.58;;;;;;;11.23;59.72;101993.41;5522399;25;20006;-41
2024/04/20 03:16:03;;;;;;;12.60;2.45;;;;;;;11.36;59.67;102000.75;5489009;26;20031;-41
2024/04/20 03:18:28;;;;;;;16.75;2.40;;;;;;;11.24;60.60;101997.78;5521359;25;20001;-41
2024/04/20 03:20:54;;;;;;;12.55;2.70;;;;;;;11.11;60.16;101992.16;5489187;26;20004;-41
2024/04/20 03:23:19;;;;;;;13.88;2.00;;;;;;;11.39;59.44;101997.34;5519958;26;20347;-41
2024/04/20 03:25:44;;;;;;;15.70;2.00;;;;;;;11.26;59.26;101998.72;5520792;25;20024;-42
2024/04/20 03:28:10;;;;;;;12.13;1.90;;;;;;;11.29;58.65;102001.41;5523050;25;20344;-42
2024/04/20 03:30:35;;;;;;;12.23;2.00;;;;;;;11.33;58.85;102002.41;5522977;25;20331;-41
2024/04/20 03:33:00;;;;;;;12.60;1.67;;;;;;;11.27;59.23;102007.44;5522958;26;20069;-43
2024/04/20 03:35:26;;;;;;;9.07;1.70;;;;;;;11.35;58.02;102004.19;5521911;25;20029;-41
2024/04/20 03:37:51;;;;;;;16.15;2.30;;;;;;;11.11;57.74;102010.44;5519686;26;20001;-41
2024/04/20 03:40:16;;;;;;;11.10;1.50;;;;;;;11.45;56.60;102013.19;5519831;25;19993;-41
2024/04/20 03:42:42;;;;;;;12.52;1.73;;;;;;;11.13;57.39;102008.78;5518747;25;19998;-41
2024/04/20 03:45:07;;;;;;;18.08;2.10;;;;;;;11.29;57.59;102022.28;5519488;26;20012;-41
2024/04/20 03:47:33;;;;;;;13.35;1.92;;;;;;;11.31;56.46;102014.53;5518678;25;19994;-41
2024/04/20 03:49:58;;;;;;;8.88;1.58;;;;;;;11.35;56.30;102019.84;5519959;25;19998;-41
2024/04/20 03:52:23;;;;;;;12.23;1.50;;;;;;;11.46;56.94;102027.13;5519985;26;20002;-41
2024/04/20 03:54:49;;;;;;;15.32;1.95;;;;;;;10.98;58.85;102030.06;5519065;26;20115;-42
2024/04/20 03:57:14;;;;;;;10.48;1.80;;;;;;;10.67;62.67;102030.00;5488636;26;19994;-43
2024/04/20 03:59:39;;;;;;;9.35;1.52;;;;;;;10.63;63.44;102041.13;5520460;25;20014;-41
2024/04/20 04:02:04;;;;;;;10.82;2.03;;;;;;;10.78;64.38;102044.25;5522138;25;20009;-41
2024/04/20 04:04:30;;;;;;;10.70;1.58;;;;;;;10.62;65.66;102050.69;5522177;25;20041;-41
2024/04/20 04:06:55;;;;;;;15.30;1.60;;;;;;;10.49;63.59;102040.72;5522892;25;20008;-43
2024/04/20 04:09:20;;;;;;;8.85;1.30;;;;;;;10.73;62.45;102053.66;5521531;25;20002;-41
2024/04/20 04:11:46;;;;;;;9.43;1.45;;;;;;;10.65;62.43;102052.53;5520513;25;19998;-43
2024/04/20 04:14:11;;;;;;;15.05;1.75;;;;;;;10.84;61.33;102055.75;5520947;25;20692;-43
2024/04/20 04:16:37;;;;;;;8.75;1.40;;;;;;;10.71;61.15;102060.53;5520150;25;20010;-43
2024/04/20 04:19:02;;;;;;;10.75;1.20;;;;;;;10.80;60.16;102050.38;5521449;25;20027;-42
2024/04/20 04:21:30;;;;;;;9.45;1.40;;;;;;;10.71;59.57;102057.94;5520782;25;20464;-42
2024/04/20 04:23:56;;;;;;;8.30;1.30;;;;;;;10.93;58.50;102056.03;5521103;25;20009;-41
2024/04/20 04:26:22;;;;;;;8.85;1.35;;;;;;;10.91;58.16;102055.13;5520706;25;20070;-41
2024/04/20 04:28:48;;;;;;;13.40;1.27;;;;;;;10.89;58.43;102063.72;5520492;25;19998;-41
2024/04/20 04:31:13;;;;;;;13.10;1.20;;;;;;;10.97;58.08;102062.25;5521223;25;20078;-42
2024/04/20 04:33:38;;;;;;;6.93;1.17;;;;;;;10.56;59.72;102066.13;5520364;25;20382;-42
2024/04/20 04:36:05;;;;;;;8.98;1.27;;;;;;;11.20;57.94;102069.03;5520730;25;19997;-41
2024/04/20 04:38:30;;;;;;;8.05;1.38;;;;;;;10.91;59.50;102075.09;5519812;25;20034;-42
2024/04/20 04:40:55;;;;;;;11.80;1.52;;;;;;;10.75;60.35;102080.66;5520595;25;19997;-41
2024/04/20 04:43:21;;;;;;;13.68;1.48;;;;;;;10.68;61.67;102086.50;5520287;25;20001;-43
2024/04/20 04:45:47;;;;;;;8.10;1.25;;;;;;;10.71;63.60;102087.50;5551848;25;20041;-41
2024/04/20 04:48:17;;;;;;;11.77;1.42;;;;;;;10.26;67.84;102091.19;5524560;25;19993;-43
2024/04/20 04:50:43;;;;;;;13.13;2.00;;;;;;;10.40;68.17;102092.56;5523161;25;20008;-41
2024/04/20 04:53:08;;;;;;;15.02;2.00;;;;;;;10.63;68.10;102104.63;5524621;25;20017;-41
2024/04/20 04:55:34;;;;;;;13.18;1.85;;;;;;;10.72;68.18;102114.47;5523379;25;20002;-41
2024/04/20 04:57:59;;;;;;;13.32;2.05;;;;;;;10.41;69.88;102121.28;5525619;25;19997;-41
2024/04/20 05:00:24;;;;;;;11.93;1.85;;;;;;;9.90;70.81;102120.31;5525377;25;19993;-41
2024/04/20 05:02:50;;;;;;;8.20;1.35;;;;;;;9.57;70.32;102122.59;5526207;25;20015;-42
2024/04/20 05:05:15;;;;;;;6.97;1.20;;;;;;;9.66;70.52;102125.53;5525863;25;20002;-41
2024/04/20 05:07:42;;;;;;;7.57;1.00;;;;;;;10.09;68.07;102125.34;5524064;25;19998;-41
2024/04/20 05:10:08;;;;;;;5.55;1.10;;;;;;;9.47;69.05;102128.25;5524866;25;20336;-40
2024/04/20 05:12:34;;;;;;;7.85;1.13;;;;;;;9.50;68.29;102130.09;5525389;25;20026;-43
2024/04/20 05:14:59;;;;;;;10.20;1.23;;;;;;;9.45;68.77;102129.94;5527834;25;20346;-41
2024/04/20 05:17:24;;;;;;;12.05;1.65;;;;;;;9.82;68.67;102134.78;5526397;25;20046;-42
2024/04/20 05:19:50;;;;;;;13.25;1.52;;;;;;;9.89;68.40;102154.13;5524088;25;20464;-41
2024/04/20 05:22:15;;;;;;;10.02;1.50;;;;;;;9.82;68.09;102167.78;5522477;26;20024;-41
2024/04/20 05:24:40;;;;;;;5.03;1.27;;;;;;;9.78;66.75;102156.34;5524341;25;20116;-40
2024/04/20 05:27:06;;;;;;;5.45;1.13;;;;;;;10.11;65.80;102167.09;5524118;25;20001;-42
2024/04/20 05:29:31;;;;;;;10.45;1.58;;;;;;;10.20;64.53;102169.16;5523201;25;20001;-43
2024/04/20 05:31:57;;;;;;;7.10;1.17;;;;;;;9.80;65.47;102166.81;5524610;25;20008;-40
2024/04/20 05:34:22;;;;;;;8.98;1.20;;;;;;;10.20;63.42;102172.66;5524139;25;20019;-40
2024/04/20 05:36:48;;;;;;;7.10;1.30;;;;;;;10.18;63.54;102174.34;5524160;25;20013;-41
2024/04/20 05:39:16;;;;;;;11.73;1.75;;;;;;;10.32;62.48;102175.69;5524645;25;19998;-42
2024/04/20 05:41:41;;;;;;;10.07;1.42;;;;;;;10.46;63.06;102176.19;5530198;25;19993;-41
2024/04/20 05:44:06;;;;;;;12.07;1.73;;;;;;;10.42;63.32;102185.63;5533222;25;20001;-40
2024/04/20 05:46:32;;;;;;;7.47;1.40;;;;;;;10.85;62.90;102180.16;5532344;25;19998;-43
2024/04/20 05:48:58;;;;;;;10.75;1.70;;;;;;;10.85;61.65;102182.75;5527424;25;20033;-42
2024/04/20 05:51:23;;;;;;;9.65;1.20;;;;;;;10.90;61.98;102185.50;5524422;25;20001;-41
2024/04/20 05:53:48;;;;;;;7.90;1.33;;;;;;;11.60;61.11;102191.22;5526340;25;20040;-41
2024/04/20 05:56:14;;;;;;;12.20;1.65;;;;;;;11.74;59.67;102184.72;5532453;25;20035;-43
2024/04/20 05:58:39;;;;;;;11.85;2.28;;;;;;;11.82;59.04;102190.16;5532593;25;20016;-43
2024/04/20 06:01:04;;;;;;;10.85;1.63;;;;;;;11.81;57.47;102190.13;5532225;25;20090;-44
2024/04/20 06:03:30;;;;;;;11.02;1.58;;;;;;;11.77;56.14;102187.41;5528248;25;20008;-43
2024/04/20 06:05:56;;;;;;;12.52;1.83;;;;;;;12.03;55.86;102196.00;5531132;25;19993;-42
2024/04/20 06:08:21;;;;;;;12.38;2.22;;;;;;;12.20;55.05;102199.06;5526316;25;20508;-41
2024/04/20 06:10:54;;;;;;;9.52;1.90;;;;;;;12.25;54.15;102202.72;5522825;25;20061;-42
2024/04/20 06:13:19;;;;;;;10.25;1.75;;;;;;;12.53;53.66;102207.84;5523215;25;20080;-39
2024/04/20 06:15:44;;;;;;;11.10;1.58;;;;;;;13.29;53.23;102204.56;5522058;25;20074;-43
2024/04/20 06:18:10;;;;;;;10.80;1.52;;;;;;;13.55;50.86;102194.66;5523079;25;20005;-41
2024/04/20 06:20:37;;;;;;;17.85;2.13;;;;;;;13.71;51.05;102206.38;5522219;25;20037;-41
2024/04/20 06:23:03;;;;;;;13.73;1.77;;;;;;;13.94;50.33;102212.09;5523230;25;19997;-41
2024/04/20 06:25:29;;;;;;;12.43;1.83;;;;;;;14.83;46.85;102207.72;5522648;25;20005;-41
2024/04/20 06:27:54;;;;;;;10.07;1.75;;;;;;;13.65;51.00;102219.34;5522861;25;20005;-41
2024/04/20 06:30:19;;;;;;;18.17;2.22;;;;;;;12.87;56.09;102229.63;5523077;25;19994;-42
2024/04/20 06:32:48;;;;;;;20.17;2.50;;;;;;;12.27;58.31;102232.41;5522399;25;20017;-42
2024/04/20 06:35:14;;;;;;;19.25;2.22;;;;;;;12.66;58.23;102232.59;5522757;25;20009;-42
2024/04/20 06:37:39;;;;;;;17.88;2.33;;;;;;;12.28;60.90;102238.50;5521246;25;20013;-42
2024/04/20 06:40:05;;;;;;;16.38;2.15;;;;;;;11.92;59.43;102240.97;5522471;25;20070;-41
2024/04/20 06:42:30;;;;;;;13.40;1.90;;;;;;;11.53;59.53;102243.19;5522110;25;20061;-41
2024/04/20 06:44:55;;;;;;;10.38;1.90;;;;;;;11.78;59.39;102248.38;5522613;25;20069;-41
2024/04/20 06:47:21;;;;;;;13.43;1.90;;;;;;;11.46;60.17;102251.72;5522100;25;20703;-40
2024/04/20 06:49:50;;;;;;;14.65;1.95;;;;;;;11.10;61.21;102264.47;5522042;25;20005;-43
2024/04/20 06:52:15;;;;;;;7.32;1.27;;;;;;;11.12;59.92;102268.88;5522696;25;20050;-40
2024/04/20 06:54:43;;;;;;;13.27;1.85;;;;;;;11.22;59.08;102284.00;5521758;25;20032;-41
2024/04/20 06:57:08;;;;;;;11.20;1.67;;;;;;;11.31;57.56;102278.19;5522118;25;20009;-41
2024/04/20 06:59:33;;;;;;;9.05;1.88;;;;;;;11.56;57.99;102270.31;5522087;25;20004;-41
2024/04/20 07:01:59;;;;;;;8.88;1.55;;;;;;;12.00;56.33;102269.09;5522428;25;20069;-41
2024/04/20 07:04:24;;;;;;;7.95;1.65;;;;;;;12.37;52.48;102268.44;5522386;25;20016;-40
2024/04/20 07:06:49;;;;;;;7.55;1.33;;;;;;;12.53;51.38;102270.63;5520556;25;20005;-42
2024/04/20 07:09:15;;;;;;;9.48;1.58;;;;;;;13.06;50.75;102275.50;5521689;25;20433;-41
2024/04/20 07:11:40;;;;;;;9.93;1.40;;;;;;;14.16;49.19;102272.88;5521908;25;19994;-41
2024/04/20 07:14:05;;;;;;;7.72;1.50;;;;;;;14.87;45.14;102264.69;5522728;25;20412;-42
2024/04/20 07:16:31;;;;;;;11.20;1.92;;;;;;;15.43;44.09;102266.50;5521483;25;20012;-41
2024/04/20 07:18:56;;;;;;;8.15;1.73;;;;;;;15.11;42.61;102267.75;5522806;25;20021;-43
2024/04/20 07:21:21;;;;;;;9.23;1.55;;;;;;;15.53;39.25;102267.56;5523008;25;20001;-41
2024/04/20 07:23:47;;;;;;;11.18;1.90;;;;;;;15.63;40.93;102269.47;5522916;25;19993;-41
2024/04/20 07:26:12;;;;;;;13.30;2.08;;;;;;;14.91;43.34;102287.50;5523439;25;20060;-42
2024/04/20 07:28:38;;;;;;;10.98;1.77;;;;;;;14.53;44.44;102298.16;5522862;25;20002;-42
2024/04/20 07:31:03;;;;;;;17.17;2.00;;;;;;;13.60;46.70;102300.47;5522747;25;20002;-41
2024/04/20 07:33:29;;;;;;;12.20;1.80;;;;;;;13.44;48.86;102306.19;5522063;25;20012;-42
2024/04/20 07:35:54;;;;;;;10.40;1.80;;;;;;;13.29;49.44;102311.97;5523053;25;20005;-43
2024/04/20 07:38:19;;;;;;;13.23;2.03;;;;;;;13.05;49.63;102313.03;5523973;25;20062;-43
2024/04/20 07:40:45;;;;;;;10.43;2.00;;;;;;;13.05;50.48;102311.31;5522679;25;20053;-41
2024/04/20 07:43:10;;;;;;;11.32;2.10;;;;;;;13.06;50.64;102317.38;5522739;25;20376;-42
2024/04/20 07:45:35;;;;;;;11.43;1.67;;;;;;;13.14;49.74;102316.78;5521563;25;20712;-43
2024/04/20 07:48:01;;;;;;;12.35;1.90;;;;;;;12.82;51.01;102321.13;5522121;25;20005;-40
2024/04/20 07:50:26;;;;;;;13.00;2.00;;;;;;;12.93;51.33;102326.66;5522573;25;20010;-41
2024/04/20 07:52:52;;;;;;;9.40;1.65;;;;;;;12.30;51.89;102318.78;5522376;25;20009;-43
2024/04/20 07:55:18;;;;;;;12.15;1.90;;;;;;;12.62;52.97;102316.22;5521152;25;20369;-41
2024/04/20 07:57:44;;;;;;;16.48;2.28;;;;;;;12.47;54.09;102329.72;5520591;25;20005;-44
2024/04/20 08:00:11;;;;;;;14.73;2.05;;;;;;;12.19;54.07;102328.06;5521461;25;20065;-41
2024/04/20 08:02:36;;;;;;;15.45;1.80;;;;;;;12.36;51.22;102337.28;5521388;25;20002;-42
2024/04/20 08:05:02;;;;;;;9.23;1.67;;;;;;;12.41;50.43;102338.28;5521821;25;20002;-42
2024/04/20 08:07:27;;;;;;;13.55;1.88;;;;;;;12.08;50.76;102338.16;5519236;25;20077;-45
2024/04/20 08:09:53;;;;;;;11.93;1.80;;;;;;;12.18;47.96;102352.41;5521412;25;20467;-41
2024/04/20 08:12:18;;;;;;;6.47;1.50;;;;;;;12.04;45.84;102338.03;5521432;25;20013;-42
2024/04/20 08:14:44;;;;;;;9.13;1.67;;;;;;;13.04;46.43;102345.28;5522027;25;20008;-43
2024/04/20 08:17:09;;;;;;;12.52;1.98;;;;;;;12.93;46.66;102356.34;5525150;25;19994;-42
2024/04/20 08:19:34;;;;;;;9.77;1.50;;;;;;;12.67;47.27;102354.75;5526167;25;20070;-42
2024/04/20 08:22:00;;;;;;;16.50;1.63;;;;;;;12.77;47.06;102359.38;5526485;25;20077;-44
2024/04/20 08:24:25;;;;;;;9.68;1.85;;;;;;;12.76;44.03;102367.19;5526242;25;20012;-42
2024/04/20 08:26:50;;;;;;;6.53;1.50;;;;;;;13.20;45.06;102364.09;5527796;25;20013;-41
2024/04/20 08:29:16;;;;;;;11.45;1.90;;;;;;;13.03;44.66;102370.56;5530714;25;20009;-43
2024/04/20 08:31:41;;;;;;;12.98;2.10;;;;;;;13.14;45.27;102360.41;5529202;25;20336;-41
2024/04/20 08:34:07;;;;;;;9.25;1.55;;;;;;;13.72;43.09;102371.50;5531482;25;20013;-43
2024/04/20 08:36:32;;;;;;;12.02;1.60;;;;;;;13.77;43.11;102374.28;5530253;25;20668;-44
2024/04/20 08:38:58;;;;;;;10.40;1.90;;;;;;;13.10;45.21;102369.91;5527258;25;20001;-42
2024/04/20 08:41:25;;;;;;;11.52;2.20;;;;;;;13.37;44.74;102381.13;5524738;25;20008;-42
2024/04/20 08:43:52;;;;;;;11.13;1.50;;;;;;;12.95;46.50;102378.22;5525394;25;19997;-42
2024/04/20 08:46:18;;;;;;;12.10;1.90;;;;;;;12.85;48.63;102383.16;5523904;25;19997;-43
2024/04/20 08:48:47;;;;;;;9.57;1.70;;;;;;;12.89;47.90;102380.66;5523401;25;20343;-42
2024/04/20 08:51:13;;;;;;;14.35;1.90;;;;;;;13.05;49.17;102386.34;5524446;25;20012;-42
2024/04/20 08:53:44;;;;;;;13.68;1.63;;;;;;;13.49;48.32;102395.38;5523211;25;19998;-42
2024/04/20 08:56:09;;;;;;;12.48;1.73;;;;;;;13.48;49.65;102393.63;5524343;25;20459;-42
2024/04/20 08:58:35;;;;;;;12.13;1.80;;;;;;;13.01;49.72;102398.44;5524101;25;20066;-41
2024/04/20 09:01:01;;;;;;;9.52;1.30;;;;;;;13.15;48.10;102391.88;5524305;25;20094;-44
2024/04/20 09:03:27;;;;;;;7.53;1.60;;;;;;;13.53;47.46;102390.28;5524166;25;19997;-41
2024/04/20 09:05:55;;;;;;;15.05;1.75;;;;;;;14.05;44.44;102402.00;5524211;25;20385;-42
2024/04/20 09:08:22;;;;;;;7.00;1.00;;;;;;;14.38;43.03;102394.97;5524114;25;20324;-41
2024/04/20 09:10:48;;;;;;;9.05;1.52;;;;;;;14.50;42.80;102395.22;5523785;25;20012;-43
2024/04/20 09:13:18;;;;;;;9.98;1.30;;;;;;;14.53;43.16;102397.91;5524014;25;20001;-41
2024/04/20 09:15:47;;;;;;;11.65;1.35;;;;;;;14.03;47.59;102406.31;5523778;25;20077;-41
2024/04/20 09:18:14;;;;;;;11.27;1.42;;;;;;;13.63;46.88;102412.34;5524805;25;20001;-43
2024/04/20 09:20:40;;;;;;;9.38;1.70;;;;;;;13.06;49.13;102414.25;5524688;25;19993;-41
2024/04/20 09:23:06;;;;;;;8.75;1.55;;;;;;;13.29;48.12;102413.22;5524435;25;20483;-41
2024/04/20 09:25:33;;;;;;;11.38;1.73;;;;;;;12.24;49.67;102409.25;5525854;25;20073;-41
2024/04/20 09:28:00;;;;;;;9.18;1.52;;;;;;;12.52;49.94;102417.97;5523958;25;20017;-43
2024/04/20 09:30:25;;;;;;;10.45;1.33;;;;;;;12.78;49.08;102430.94;5523693;25;20008;-42
2024/04/20 09:32:51;;;;;;;15.90;1.60;;;;;;;13.05;48.65;102426.50;5524363;25;20001;-45
2024/04/20 09:35:16;;;;;;;10.85;1.30;;;;;;;13.32;49.70;102427.28;5528024;25;19994;-41
2024/04/20 09:37:42;;;;;;;8.68;1.55;;;;;;;13.95;49.38;102431.50;5525585;25;20013;-43
2024/04/20 09:40:08;;;;;;;8.40;1.35;;;;;;;13.51;51.19;102420.78;5523922;25;20020;-42
2024/04/20 09:42:35;;;;;;;10.57;1.42;;;;;;;13.38;50.83;102432.66;5523362;25;20012;-42
2024/04/20 09:45:00;;;;;;;5.80;1.00;;;;;;;13.64;50.93;102422.88;5553427;25;20008;-42
2024/04/20 09:47:29;;;;;;;11.18;1.60;;;;;;;13.26;53.05;102437.59;5553112;25;20375;-41
2024/04/20 09:49:56;;;;;;;8.68;1.27;;;;;;;13.43;50.32;102434.50;5523850;25;19998;-43
2024/04/20 09:52:34;;;;;;;5.07;0.95;;;;;;;12.89;50.77;102445.22;5523917;25;20020;-41
2024/04/20 09:55:00;;;;;;;5.85;0.90;;;;;;;13.59;50.17;102444.56;5523398;25;20077;-45
2024/04/20 09:57:27;;;;;;;4.93;0.98;;;;;;;13.38;48.63;102443.16;5522854;25;20009;-41
2024/04/20 09:59:56;;;;;;;3.15;0.73;;;;;;;13.73;47.05;102451.91;5522746;25;20011;-41
2024/04/20 10:02:22;;;;;;;5.28;0.90;;;;;;;13.01;50.81;102453.41;5523264;25;19998;-43
2024/04/20 10:04:49;;;;;;;5.13;1.00;;;;;;;12.41;52.79;102474.31;5522457;25;20380;-42
2024/04/20 10:07:15;;;;;;;8.43;0.80;;;;;;;12.82;51.02;102462.47;5523022;25;19997;-43
2024/04/20 10:09:42;;;;;;;3.92;0.75;;;;;;;12.87;49.68;102455.63;5522511;25;20012;-44
2024/04/20 10:12:07;;;;;;;3.85;0.90;;;;;;;13.57;49.63;102455.00;5523416;25;20009;-41
2024/04/20 10:14:33;;;;;;;2.72;0.75;;;;;;;13.52;50.60;102454.00;5522859;25;20008;-44
2024/04/20 10:17:00;;;;;;;2.45;0.73;;;;;;;13.24;51.66;102462.84;5522185;25;19998;-42
2024/04/20 10:19:42;;;;;;;6.07;1.10;;;;;;;12.96;50.86;102457.63;5551783;25;19997;-45
2024/04/20 10:22:09;;;;;;;3.92;0.80;;;;;;;13.20;49.72;102453.13;5523574;25;20012;-42
2024/04/20 10:24:35;;;;;;;5.63;0.90;;;;;;;13.05;47.98;102457.91;5522683;25;20088;-42
2024/04/20 10:27:00;;;;;;;5.93;1.00;;;;;;;13.60;47.30;102447.22;5522510;25;20033;-41
2024/04/20 10:29:27;;;;;;;10.55;1.30;;;;;;;12.58;51.07;102448.66;5522651;25;20049;-40
2024/04/20 10:31:58;;;;;;;12.07;1.17;;;;;;;13.14;50.79;102444.22;5522840;25;19994;-43
2024/04/20 10:34:25;;;;;;;7.88;1.17;;;;;;;13.32;52.33;102440.38;5523040;25;19997;-42
2024/04/20 10:36:59;;;;;;;8.20;1.63;;;;;;;13.86;51.07;102447.00;5522424;25;20578;-41
2024/04/20 10:39:28;;;;;;;8.40;1.60;;;;;;;13.40;50.80;102433.59;5522602;25;20043;-42
2024/04/20 10:42:04;;;;;;;9.05;1.70;;;;;;;13.47;50.19;102428.53;5518917;25;20001;-44
2024/04/20 10:44:29;;;;;;;9.40;1.50;;;;;;;13.86;51.04;102437.38;5521195;25;20359;-42
2024/04/20 10:46:54;;;;;;;13.50;2.17;;;;;;;13.54;51.53;102441.81;5521596;25;20012;-41
2024/04/20 10:49:24;;;;;;;16.85;2.00;;;;;;;14.46;49.73;102440.59;5522648;25;20031;-45
2024/04/20 10:51:58;;;;;;;12.43;1.73;;;;;;;13.98;49.84;102440.31;5522619;25;20008;-44
2024/04/20 10:54:24;;;;;;;10.25;1.42;;;;;;;13.95;54.70;102455.97;5522840;25;20001;-43
2024/04/20 10:56:53;;;;;;;6.75;1.38;;;;;;;13.09;58.92;102478.09;5522036;25;19998;-42
2024/04/20 10:59:19;;;;;;;10.48;1.92;;;;;;;12.68;64.06;102476.88;5525416;25;20009;-43
2024/04/20 11:01:45;;;;;;;12.70;1.92;;;;;;;12.47;65.55;102460.53;5528643;25;19997;-42
2024/04/20 11:04:11;;;;;;;13.43;1.67;;;;;;;11.71;67.39;102458.03;5527355;25;20059;-42
2024/04/20 11:06:37;;;;;;;13.75;1.80;;;;;;;11.57;70.92;102461.88;5523558;25;20061;-43
2024/04/20 11:09:08;;;;;;;17.40;2.00;;;;;;;12.14;70.02;102455.09;5523612;25;20468;-39
2024/04/20 11:11:34;;;;;;;15.35;2.03;;;;;;;12.26;71.76;102449.41;5522530;25;20016;-43
2024/04/20 11:14:00;;;;;;;9.00;1.63;;;;;;;13.00;70.18;102451.63;5526270;26;19993;-41